Time;durP1;ratioP1;P1;durP2;ratioP2;P2;SDS_P1;SDS_P2;PMS_P1;PMS_P2;Temp;Humidity;BMP_temperature;BMP_pressure;BME280_temperature;BME280_humidity;BME280_pressure;Samples;Min_cycle;Max_cycle;Signal;HPM_P1;HPM_P2
2023/08/21 00:00:40;;;;;;;4.13;1.42;;;;;;;23.86;53.22;102204.53;5043829;28;20067;-63
2023/08/21 00:03:08;;;;;;;8.27;2.13;;;;;;;23.84;53.09;102199.34;5043613;28;20046;-63
2023/08/21 00:05:36;;;;;;;3.78;1.73;;;;;;;23.82;53.15;102204.28;5055823;28;20049;-63
2023/08/21 00:08:04;;;;;;;5.05;2.10;;;;;;;23.82;52.99;102209.78;5063474;28;20045;-63
2023/08/21 00:10:34;;;;;;;4.10;1.52;;;;;;;23.79;53.03;102210.31;5043763;28;20046;-63
2023/08/21 00:13:01;;;;;;;4.65;1.60;;;;;;;23.78;53.35;102210.59;5053843;28;20049;-63
2023/08/21 00:15:29;;;;;;;4.47;1.45;;;;;;;23.77;53.38;102214.44;5062640;27;20045;-63
2023/08/21 00:17:57;;;;;;;5.15;1.38;;;;;;;23.75;53.38;102211.97;5062730;27;20505;-63
2023/08/21 00:20:25;;;;;;;4.68;1.63;;;;;;;23.73;53.34;102214.19;5050298;28;20085;-62
2023/08/21 00:22:53;;;;;;;5.32;1.70;;;;;;;23.71;53.64;102205.41;5060751;28;20074;-63
2023/08/21 00:25:22;;;;;;;5.32;1.40;;;;;;;23.69;53.71;102202.09;5043368;28;20049;-63
2023/08/21 00:27:51;;;;;;;9.18;2.20;;;;;;;23.67;53.53;102201.56;5094574;27;20047;-63
2023/08/21 00:30:19;;;;;;;7.85;2.72;;;;;;;23.64;53.25;102200.19;5082851;27;20074;-63
2023/08/21 00:32:47;;;;;;;5.60;2.20;;;;;;;23.63;53.69;102201.28;5061808;28;20049;-63
2023/08/21 00:35:15;;;;;;;9.63;2.00;;;;;;;23.62;53.71;102204.31;5062963;28;20049;-63
2023/08/21 00:37:43;;;;;;;3.75;1.70;;;;;;;23.60;53.64;102195.53;5051075;28;20061;-62
2023/08/21 00:40:12;;;;;;;5.65;1.90;;;;;;;23.59;53.71;102199.38;5042708;28;20102;-63
2023/08/21 00:42:40;;;;;;;4.63;1.75;;;;;;;23.57;53.37;102193.34;5056218;28;20050;-63
2023/08/21 00:45:11;;;;;;;7.07;2.03;;;;;;;23.55;53.63;102190.06;5042915;28;20050;-63
2023/08/21 00:47:39;;;;;;;3.00;1.48;;;;;;;23.54;53.52;102189.22;5053645;28;20045;-63
2023/08/21 00:50:08;;;;;;;4.40;1.95;;;;;;;23.53;53.72;102200.44;5052663;28;20050;-63
2023/08/21 00:52:39;;;;;;;7.22;2.08;;;;;;;23.51;53.48;102199.91;5042860;28;20114;-63
2023/08/21 00:55:08;;;;;;;3.45;1.30;;;;;;;23.50;53.62;102195.50;5059541;28;20052;-63
2023/08/21 00:57:37;;;;;;;4.15;1.83;;;;;;;23.48;54.16;102193.03;5054548;28;20075;-62
2023/08/21 01:00:07;;;;;;;4.30;1.48;;;;;;;23.48;53.84;102208.69;5043112;28;20050;-62
2023/08/21 01:02:36;;;;;;;5.65;1.30;;;;;;;23.47;53.66;102220.75;5043043;28;20056;-62
2023/08/21 01:05:06;;;;;;;5.72;1.63;;;;;;;23.46;53.63;102224.59;5041988;28;20113;-63
2023/08/21 01:07:45;;;;;;;3.78;1.10;;;;;;;23.44;53.69;102213.91;5041926;28;20049;-62
2023/08/21 01:10:23;;;;;;;4.50;1.63;;;;;;;23.42;53.63;102196.88;5042648;28;20061;-63
2023/08/21 01:12:58;;;;;;;3.90;1.60;;;;;;;23.42;53.73;102198.81;5058306;28;20060;-63
2023/08/21 01:15:26;;;;;;;6.13;1.95;;;;;;;23.40;53.86;102201.81;5059624;27;20053;-62
2023/08/21 01:17:55;;;;;;;4.63;1.95;;;;;;;23.38;54.12;102196.63;5047321;27;20045;-63
2023/08/21 01:20:24;;;;;;;7.40;1.63;;;;;;;23.37;54.19;102186.75;5062357;28;20045;-62
2023/08/21 01:22:52;;;;;;;6.55;2.15;;;;;;;23.37;53.77;102192.22;5061033;28;20056;-63
2023/08/21 01:25:21;;;;;;;2.72;1.38;;;;;;;23.36;54.04;102187.00;5042579;28;20057;-63
2023/08/21 01:27:51;;;;;;;4.32;1.45;;;;;;;23.36;53.90;102176.88;5049747;28;20053;-62
2023/08/21 01:30:19;;;;;;;5.60;1.70;;;;;;;23.37;54.28;102177.69;5069096;28;20053;-62
2023/08/21 01:33:00;;;;;;;5.75;1.50;;;;;;;23.35;54.09;102172.47;5067425;28;20056;-63
2023/08/21 01:35:30;;;;;;;4.07;1.63;;;;;;;23.34;54.01;102168.09;5069043;28;20108;-62
2023/08/21 01:37:59;;;;;;;4.88;1.80;;;;;;;23.32;53.87;102167.53;5054475;28;20049;-63
2023/08/21 01:40:28;;;;;;;4.35;2.20;;;;;;;23.32;54.28;102170.28;5057203;27;20053;-63
2023/08/21 01:42:56;;;;;;;4.60;1.77;;;;;;;23.31;53.85;102168.63;5059978;28;20102;-63
2023/08/21 01:45:24;;;;;;;5.35;1.50;;;;;;;23.30;54.00;102166.16;5062747;28;20049;-63
2023/08/21 01:47:52;;;;;;;3.22;1.33;;;;;;;23.28;53.87;102162.88;5068780;28;20041;-63
2023/08/21 01:50:20;;;;;;;6.20;1.70;;;;;;;23.26;53.95;102165.88;5048919;27;20063;-63
2023/08/21 01:52:48;;;;;;;7.75;2.20;;;;;;;;;;5048505;28;20076;-63
2023/08/21 01:55:16;;;;;;;4.25;1.70;;;;;;;23.25;54.25;102169.72;5067040;28;20122;-64
2023/08/21 01:57:45;;;;;;;5.95;1.58;;;;;;;23.24;53.86;102175.50;5066255;28;20053;-63
2023/08/21 02:00:14;;;;;;;4.72;1.77;;;;;;;23.23;54.24;102182.06;5049124;28;20053;-62
2023/08/21 02:02:42;;;;;;;4.75;1.90;;;;;;;23.21;54.33;102181.53;5049152;28;20063;-63
2023/08/21 02:05:10;;;;;;;3.70;1.52;;;;;;;23.19;53.83;102190.03;5049354;28;20050;-63
2023/08/21 02:07:38;;;;;;;5.82;1.58;;;;;;;23.19;53.87;102194.69;5048562;28;20074;-63
2023/08/21 02:10:07;;;;;;;5.72;1.95;;;;;;;23.17;54.29;102197.72;5062740;28;20052;-63
2023/08/21 02:12:35;;;;;;;5.53;1.65;;;;;;;23.15;54.25;102190.84;5058828;28;20045;-63
2023/08/21 02:15:11;;;;;;;5.03;2.20;;;;;;;23.12;53.87;102189.47;5048624;28;20075;-63
2023/08/21 02:17:42;;;;;;;7.28;1.73;;;;;;;23.10;54.16;102186.19;5062065;28;20078;-63
2023/08/21 02:20:12;;;;;;;3.90;1.35;;;;;;;23.09;54.12;102189.19;5068125;28;20053;-63
2023/08/21 02:22:39;;;;;;;7.18;1.58;;;;;;;23.08;54.34;102195.78;5067551;28;20049;-63
2023/08/21 02:25:08;;;;;;;6.65;2.08;;;;;;;23.04;54.46;102193.59;5028669;28;20046;-62
2023/08/21 02:27:36;;;;;;;5.22;1.50;;;;;;;23.03;54.42;102191.13;5061250;28;20048;-62
2023/08/21 02:30:04;;;;;;;5.32;1.55;;;;;;;23.02;54.13;102189.47;5068320;28;20045;-63
2023/08/21 02:32:34;;;;;;;4.00;1.85;;;;;;;23.00;54.48;102197.97;5066834;28;20053;-63
2023/08/21 02:35:03;;;;;;;6.93;1.75;;;;;;;22.98;54.70;102185.63;5068001;28;20491;-62
2023/08/21 02:37:31;;;;;;;4.47;1.85;;;;;;;22.97;54.71;102186.72;5057690;28;20045;-62
2023/08/21 02:39:59;;;;;;;5.80;2.17;;;;;;;22.94;54.73;102188.09;5049608;28;20048;-62
2023/08/21 02:42:31;;;;;;;3.88;1.40;;;;;;;22.93;54.36;102188.34;5059774;28;20061;-62
2023/08/21 02:44:58;;;;;;;4.93;1.45;;;;;;;22.92;54.89;102193.03;5047891;28;20045;-62
2023/08/21 02:47:26;;;;;;;4.38;1.65;;;;;;;22.90;54.52;102189.72;5064741;28;20060;-63
2023/08/21 02:49:56;;;;;;;5.13;1.40;;;;;;;22.88;54.68;102177.38;5056258;28;20053;-62
2023/08/21 02:52:23;;;;;;;5.78;1.77;;;;;;;22.87;54.54;102182.03;5060839;28;20053;-62
2023/08/21 02:54:51;;;;;;;7.75;1.60;;;;;;;22.85;54.58;102186.16;5045829;28;20094;-62
2023/08/21 02:57:19;;;;;;;5.95;1.80;;;;;;;22.83;55.06;102186.44;5047686;28;20155;-63
2023/08/21 02:59:47;;;;;;;4.40;1.42;;;;;;;22.82;54.72;102182.03;5044739;28;20052;-63
2023/08/21 03:02:14;;;;;;;5.18;1.77;;;;;;;22.81;54.79;102185.06;5044707;28;20049;-62
2023/08/21 03:04:43;;;;;;;4.90;1.80;;;;;;;22.80;54.81;102186.16;5043668;28;20133;-62
2023/08/21 03:07:12;;;;;;;4.18;1.73;;;;;;;22.79;54.76;102184.47;5044313;28;20110;-62
2023/08/21 03:09:40;;;;;;;4.53;1.80;;;;;;;22.76;55.05;102187.75;5044559;28;20049;-62
2023/08/21 03:12:09;;;;;;;5.82;1.80;;;;;;;22.74;55.29;102182.53;5044681;28;20045;-63
2023/08/21 03:14:37;;;;;;;4.90;1.85;;;;;;;22.74;54.85;102179.78;5044043;28;20067;-62
2023/08/21 03:17:05;;;;;;;5.40;1.60;;;;;;;22.72;55.00;102177.31;5063504;28;20110;-63
2023/08/21 03:19:33;;;;;;;6.25;1.60;;;;;;;22.71;54.89;102181.16;5064170;27;20098;-62
2023/08/21 03:22:01;;;;;;;4.28;1.63;;;;;;;22.70;55.30;102182.25;5050162;28;20117;-62
2023/08/21 03:24:30;;;;;;;6.30;2.03;;;;;;;22.68;54.90;102181.69;5044798;27;20064;-62
2023/08/21 03:26:58;;;;;;;3.45;1.20;;;;;;;22.68;54.91;102187.19;5058300;27;20057;-62
2023/08/21 03:29:26;;;;;;;3.38;1.70;;;;;;;22.67;55.27;102190.19;5148881;27;20120;-62
2023/08/21 03:31:55;;;;;;;5.22;1.92;;;;;;;22.65;54.88;102190.47;5080250;27;20407;-62
2023/08/21 03:34:23;;;;;;;3.22;1.40;;;;;;;22.64;54.90;102186.06;5063623;28;20410;-62
2023/08/21 03:36:51;;;;;;;6.45;1.67;;;;;;;22.62;55.25;102198.41;5058680;28;20045;-62
2023/08/21 03:39:19;;;;;;;6.82;2.10;;;;;;;22.62;55.25;102195.66;5044246;28;20077;-62
2023/08/21 03:41:48;;;;;;;5.78;2.08;;;;;;;22.61;55.02;102183.06;5043135;28;20062;-62
2023/08/21 03:44:16;;;;;;;5.18;1.60;;;;;;;22.59;54.96;102197.03;5043919;28;20056;-62
2023/08/21 03:46:44;;;;;;;6.68;1.83;;;;;;;22.57;54.91;102191.00;5043803;28;20061;-62
2023/08/21 03:49:11;;;;;;;6.70;2.30;;;;;;;22.55;55.05;102187.69;5043740;28;20041;-62
2023/08/21 03:51:39;;;;;;;7.65;2.20;;;;;;;22.53;55.02;102192.66;5043788;28;20067;-63
2023/08/21 03:54:07;;;;;;;8.82;1.85;;;;;;;22.52;55.51;102191.00;5047269;27;20075;-62
2023/08/21 03:56:35;;;;;;;5.63;1.88;;;;;;;22.50;55.16;102186.88;5043245;28;20060;-62
2023/08/21 03:59:04;;;;;;;5.13;2.22;;;;;;;22.48;55.51;102187.16;5044141;28;20046;-62
2023/08/21 04:01:32;;;;;;;3.78;1.38;;;;;;;22.48;55.16;102183.59;5043857;28;20108;-62
2023/08/21 04:04:00;;;;;;;7.78;2.22;;;;;;;22.46;55.30;102183.88;5043368;28;20073;-62
2023/08/21 04:06:28;;;;;;;6.22;2.20;;;;;;;22.44;55.24;102177.81;5053791;28;20505;-63
2023/08/21 04:08:56;;;;;;;3.90;1.58;;;;;;;22.43;55.53;102180.84;5063711;28;20045;-62
2023/08/21 04:11:24;;;;;;;6.60;2.03;;;;;;;22.41;55.40;102183.84;5063412;27;20048;-63
2023/08/21 04:13:52;;;;;;;6.10;1.73;;;;;;;22.37;55.61;102189.03;5063547;28;20048;-63
2023/08/21 04:16:21;;;;;;;5.18;1.90;;;;;;;22.36;55.64;102194.78;5049283;28;20046;-62
2023/08/21 04:18:49;;;;;;;6.40;2.70;;;;;;;22.33;55.66;102206.28;5043157;28;20050;-62
2023/08/21 04:21:17;;;;;;;5.97;2.38;;;;;;;22.30;55.99;102206.81;5043761;28;20045;-62
2023/08/21 04:23:45;;;;;;;10.18;2.38;;;;;;;22.27;55.91;102207.34;5043895;28;20054;-63
2023/08/21 04:26:13;;;;;;;8.13;2.63;;;;;;;22.24;55.83;102200.50;5043486;28;20045;-63
2023/08/21 04:28:41;;;;;;;5.95;2.28;;;;;;;22.23;56.19;102207.06;5059982;28;20101;-63
2023/08/21 04:31:09;;;;;;;6.53;2.75;;;;;;;22.23;56.15;102208.97;5057101;28;20402;-63
2023/08/21 04:33:38;;;;;;;7.82;2.40;;;;;;;22.22;56.19;102219.09;5052541;28;20045;-63
2023/08/21 04:36:07;;;;;;;7.57;2.17;;;;;;;22.21;56.21;102217.44;5062778;28;20049;-63
2023/08/21 04:38:35;;;;;;;9.15;2.10;;;;;;;22.20;56.33;102215.81;5059856;28;20056;-63
2023/08/21 04:41:09;;;;;;;6.57;2.13;;;;;;;22.19;56.08;102216.06;5061593;28;20052;-63
2023/08/21 04:43:37;;;;;;;4.47;2.08;;;;;;;22.18;56.45;102217.16;5048343;28;20049;-63
2023/08/21 04:46:05;;;;;;;7.80;2.30;;;;;;;22.17;56.62;102216.34;5047828;28;20041;-63
2023/08/21 04:48:33;;;;;;;5.15;2.00;;;;;;;22.17;56.57;102218.25;5062793;28;20053;-63
2023/08/21 04:51:02;;;;;;;8.95;2.35;;;;;;;22.15;56.45;102207.56;5045410;28;20110;-63
2023/08/21 04:53:30;;;;;;;7.13;2.25;;;;;;;22.14;56.76;102218.78;5039149;28;20053;-62
2023/08/21 04:56:00;;;;;;;8.70;2.55;;;;;;;22.13;56.73;102222.63;5042878;28;20049;-62
2023/08/21 04:58:27;;;;;;;10.93;2.45;;;;;;;22.11;56.99;102224.78;5042862;28;20071;-62
2023/08/21 05:00:55;;;;;;;6.45;2.25;;;;;;;22.08;56.85;102232.44;5042833;28;20094;-62
2023/08/21 05:03:23;;;;;;;5.85;2.50;;;;;;;22.08;56.64;102223.41;5042001;28;20080;-63
2023/08/21 05:05:54;;;;;;;8.40;2.65;;;;;;;22.06;56.78;102231.06;5042634;28;20052;-62
2023/08/21 05:08:25;;;;;;;7.82;2.72;;;;;;;22.04;56.88;102228.59;5048266;28;20466;-62
2023/08/21 05:10:56;;;;;;;7.68;2.35;;;;;;;22.04;56.70;102231.31;5062594;27;20053;-62
2023/08/21 05:13:25;;;;;;;8.38;2.75;;;;;;;22.03;56.78;102229.69;5061124;28;20087;-62
2023/08/21 05:15:54;;;;;;;6.40;2.40;;;;;;;22.03;56.91;102231.59;5062401;27;20045;-62
2023/08/21 05:18:23;;;;;;;6.20;2.63;;;;;;;22.03;57.04;102235.16;5045797;28;20508;-62
2023/08/21 05:20:51;;;;;;;9.90;3.00;;;;;;;22.02;57.06;102225.28;5042655;28;20065;-63
2023/08/21 05:23:19;;;;;;;8.23;2.47;;;;;;;21.99;57.02;102230.44;5042851;28;20088;-63
2023/08/21 05:25:49;;;;;;;8.60;3.17;;;;;;;22.01;57.08;102236.47;5042280;28;20041;-62
2023/08/21 05:28:17;;;;;;;5.93;2.92;;;;;;;21.99;57.03;102227.69;5061780;28;20490;-62
2023/08/21 05:30:49;;;;;;;9.23;2.72;;;;;;;21.99;57.04;102230.44;5062339;28;20052;-62
2023/08/21 05:33:17;;;;;;;6.72;2.85;;;;;;;21.98;57.21;102237.84;5060511;28;20061;-62
2023/08/21 05:35:45;;;;;;;8.07;3.00;;;;;;;21.97;57.31;102238.09;5062354;28;20049;-62
2023/08/21 05:38:12;;;;;;;7.07;2.92;;;;;;;21.96;57.23;102233.72;5045939;28;20053;-63
2023/08/21 05:40:41;;;;;;;7.18;2.55;;;;;;;21.94;57.20;102241.38;5052398;28;20048;-63
2023/08/21 05:43:11;;;;;;;7.10;2.75;;;;;;;21.94;57.55;102247.66;5051668;28;20495;-63
2023/08/21 05:45:39;;;;;;;4.88;2.35;;;;;;;21.92;57.48;102249.00;5042499;28;20045;-63
2023/08/21 05:48:07;;;;;;;6.78;2.53;;;;;;;21.93;57.48;102245.19;5030836;27;20045;-62
2023/08/21 05:50:36;;;;;;;6.93;2.40;;;;;;;21.91;57.27;102248.19;5048067;28;20046;-62
2023/08/21 05:53:04;;;;;;;8.25;2.50;;;;;;;21.91;57.34;102250.94;5047698;28;20046;-62
2023/08/21 05:55:32;;;;;;;6.70;2.35;;;;;;;21.91;57.51;102252.84;5062183;28;20041;-62
2023/08/21 05:58:00;;;;;;;12.88;3.28;;;;;;;21.83;57.46;102245.94;5048343;28;20063;-62
2023/08/21 06:00:29;;;;;;;6.07;2.70;;;;;;;21.90;57.20;102254.75;5041956;28;20049;-62
2023/08/21 06:02:57;;;;;;;5.20;2.35;;;;;;;21.90;57.56;102260.22;5042403;28;20057;-63
2023/08/21 06:05:25;;;;;;;9.75;2.63;;;;;;;21.91;57.47;102261.88;5041850;28;20132;-62
2023/08/21 06:07:53;;;;;;;9.32;2.38;;;;;;;21.90;57.45;102262.13;5041780;28;20102;-64
2023/08/21 06:10:21;;;;;;;7.40;2.75;;;;;;;21.91;57.46;102264.63;5042060;28;20053;-63
2023/08/21 06:12:51;;;;;;;10.85;2.95;;;;;;;21.90;57.33;102264.88;5041787;28;20049;-63
2023/08/21 06:15:19;;;;;;;7.53;2.67;;;;;;;21.90;57.39;102271.19;5043702;28;20071;-62
2023/08/21 06:17:48;;;;;;;10.20;2.63;;;;;;;21.90;57.46;102268.44;5045351;28;20053;-62
2023/08/21 06:20:16;;;;;;;7.95;2.92;;;;;;;21.89;57.34;102275.00;5045168;28;20100;-62
2023/08/21 06:22:43;;;;;;;7.93;2.60;;;;;;;21.89;57.65;102272.25;5045317;28;20095;-63
2023/08/21 06:25:12;;;;;;;6.65;2.55;;;;;;;21.87;57.70;102277.16;5046805;28;20053;-63
2023/08/21 06:27:40;;;;;;;10.32;3.75;;;;;;;21.87;57.54;102279.91;5090263;27;20047;-63
2023/08/21 06:30:24;;;;;;;7.57;3.13;;;;;;;21.87;57.64;102277.16;5150000;27;20054;-63
2023/08/21 06:32:54;;;;;;;11.75;3.17;;;;;;;21.86;57.47;102272.78;5136241;27;20059;-63
2023/08/21 06:35:22;;;;;;;7.15;2.30;;;;;;;21.86;57.79;102281.00;5063242;28;20160;-63
2023/08/21 06:37:49;;;;;;;6.97;2.70;;;;;;;21.85;57.53;102279.34;5120403;27;20051;-63
2023/08/21 06:40:17;;;;;;;8.57;2.70;;;;;;;21.85;57.82;102279.34;5149834;27;20047;-63
2023/08/21 06:42:45;;;;;;;7.28;2.70;;;;;;;21.85;57.97;102284.81;5065854;27;20049;-63
2023/08/21 06:45:13;;;;;;;9.55;2.83;;;;;;;21.86;57.73;102280.19;5045006;28;20050;-63
2023/08/21 06:47:41;;;;;;;6.13;2.55;;;;;;;21.86;57.96;102283.75;5044670;28;20081;-63
2023/08/21 06:50:11;;;;;;;9.52;2.83;;;;;;;21.87;57.76;102277.16;5044147;28;20084;-63
2023/08/21 06:52:39;;;;;;;6.45;2.53;;;;;;;21.90;57.82;102281.28;5049022;28;20070;-63
2023/08/21 06:55:08;;;;;;;7.72;2.83;;;;;;;21.91;57.70;102272.00;5044914;28;20083;-63
2023/08/21 06:57:37;;;;;;;7.25;2.53;;;;;;;21.92;57.78;102276.38;5044566;28;20042;-63
2023/08/21 07:00:07;;;;;;;8.93;3.20;;;;;;;21.92;57.83;102279.13;5044722;28;20437;-63
2023/08/21 07:02:35;;;;;;;6.25;2.13;;;;;;;21.81;57.85;102278.22;5044823;28;20049;-63
2023/08/21 07:05:03;;;;;;;6.68;2.60;;;;;;;21.90;57.77;102276.66;5064184;28;20048;-63
2023/08/21 07:07:33;;;;;;;6.57;2.50;;;;;;;21.89;57.70;102288.69;5064269;27;20201;-63
2023/08/21 07:10:03;;;;;;;9.30;3.15;;;;;;;21.88;57.98;102281.56;5064504;28;20048;-63
2023/08/21 07:12:31;;;;;;;7.55;2.35;;;;;;;21.88;57.96;102281.56;5043970;28;20049;-63
2023/08/21 07:14:59;;;;;;;7.10;2.58;;;;;;;21.88;57.99;102276.09;5044383;28;20110;-63
2023/08/21 07:17:27;;;;;;;8.15;2.67;;;;;;;21.88;58.07;102284.31;5044293;28;20132;-63
2023/08/21 07:19:55;;;;;;;8.07;2.10;;;;;;;21.88;57.98;102283.47;5051315;28;20049;-63
2023/08/21 07:22:23;;;;;;;5.97;2.20;;;;;;;21.88;58.08;102284.31;5053798;28;20118;-63
2023/08/21 07:24:52;;;;;;;8.63;2.45;;;;;;;21.89;57.77;102288.69;5044284;28;20045;-63
2023/08/21 07:27:20;;;;;;;8.35;2.35;;;;;;;21.89;57.94;102285.94;5058469;27;20098;-63
2023/08/21 07:29:48;;;;;;;5.57;2.03;;;;;;;21.90;58.02;102284.88;5064220;28;20057;-63
2023/08/21 07:32:16;;;;;;;7.60;2.95;;;;;;;21.90;57.83;102282.13;5064083;28;20049;-63
2023/08/21 07:34:44;;;;;;;9.77;2.38;;;;;;;21.91;57.86;102282.94;5103490;27;20091;-63
2023/08/21 07:37:12;;;;;;;7.80;2.20;;;;;;;21.92;58.05;102279.13;5084923;27;20069;-63
2023/08/21 07:39:41;;;;;;;7.00;2.25;;;;;;;21.92;58.07;102277.22;5091841;27;20049;-63
2023/08/21 07:42:12;;;;;;;6.93;2.50;;;;;;;21.93;57.78;102278.88;5061602;28;20052;-63
2023/08/21 07:44:39;;;;;;;4.30;1.88;;;;;;;21.93;57.75;102270.66;5062616;28;20057;-63
2023/08/21 07:47:07;;;;;;;5.80;2.15;;;;;;;21.94;57.95;102274.22;5063683;28;20053;-63
2023/08/21 07:49:35;;;;;;;4.50;1.80;;;;;;;21.94;57.92;102280.50;5057382;28;20114;-63
2023/08/21 07:52:04;;;;;;;5.10;2.10;;;;;;;21.95;58.14;102281.34;5053237;28;20056;-63
2023/08/21 07:54:32;;;;;;;5.78;2.03;;;;;;;21.95;58.14;102284.91;5059882;27;20052;-63
2023/08/21 07:57:00;;;;;;;3.92;1.70;;;;;;;21.96;58.13;102281.06;5063586;27;20045;-63
2023/08/21 07:59:29;;;;;;;5.82;1.98;;;;;;;21.97;57.92;102285.47;5063932;28;20048;-63
2023/08/21 08:01:57;;;;;;;4.75;1.90;;;;;;;21.99;57.71;102290.66;5063706;28;20450;-63
2023/08/21 08:04:25;;;;;;;4.65;2.30;;;;;;;21.99;58.04;102290.66;5049215;28;20049;-63
2023/08/21 08:06:53;;;;;;;4.75;1.90;;;;;;;22.00;58.05;102295.06;5043524;28;20046;-63
2023/08/21 08:09:21;;;;;;;5.95;2.05;;;;;;;22.01;58.03;102293.97;5046653;28;20049;-63
2023/08/21 08:11:48;;;;;;;4.75;1.90;;;;;;;22.00;57.79;102295.88;5063267;28;20149;-63
2023/08/21 08:14:16;;;;;;;6.75;2.50;;;;;;;22.01;57.73;102296.72;5063682;28;20078;-63
2023/08/21 08:16:46;;;;;;;7.28;2.00;;;;;;;22.01;57.69;102297.53;5059783;28;20049;-63
2023/08/21 08:19:14;;;;;;;4.95;1.95;;;;;;;22.02;57.54;102285.53;5043253;28;20053;-63
2023/08/21 08:21:42;;;;;;;7.63;2.03;;;;;;;22.03;57.71;102291.81;5043550;28;20053;-63
2023/08/21 08:24:10;;;;;;;4.18;1.73;;;;;;;22.05;57.46;102301.44;5043975;28;20106;-63
2023/08/21 08:26:38;;;;;;;4.55;1.60;;;;;;;22.06;57.67;102300.34;5043235;28;20106;-63
2023/08/21 08:29:06;;;;;;;6.10;2.35;;;;;;;21.92;57.77;102271.72;5023569;28;20519;-63
2023/08/21 08:31:33;;;;;;;5.25;2.00;;;;;;;22.08;57.64;102298.16;5023549;28;20083;-63
2023/08/21 08:34:03;;;;;;;3.55;1.67;;;;;;;22.10;57.78;102299.81;5047156;28;20056;-63
2023/08/21 08:36:31;;;;;;;6.75;1.80;;;;;;;22.10;57.72;102295.16;5056902;28;20060;-63
2023/08/21 08:38:59;;;;;;;9.35;1.80;;;;;;;22.04;57.43;102288.00;5147060;27;20096;-63
2023/08/21 08:41:34;;;;;;;3.58;1.80;;;;;;;22.12;57.62;102294.91;5073242;27;20053;-63
2023/08/21 08:44:03;;;;;;;5.38;1.58;;;;;;;22.13;57.53;102293.81;5045384;28;20053;-63
2023/08/21 08:46:31;;;;;;;8.93;1.80;;;;;;;22.02;57.38;102280.06;5042722;28;20129;-63
2023/08/21 08:49:00;;;;;;;7.32;1.80;;;;;;;22.15;57.41;102297.94;5057367;28;20041;-63
2023/08/21 08:51:32;;;;;;;6.30;1.98;;;;;;;22.16;57.37;102287.81;5043143;28;20049;-63
2023/08/21 08:54:01;;;;;;;7.75;1.90;;;;;;;22.17;57.16;102306.72;5042938;28;20049;-63
2023/08/21 08:56:29;;;;;;;4.47;1.77;;;;;;;22.17;57.24;102300.41;5042688;28;20152;-63
2023/08/21 08:58:57;;;;;;;6.05;1.48;;;;;;;22.19;56.99;102300.97;5042768;28;20056;-63
2023/08/21 09:01:25;;;;;;;7.22;2.58;;;;;;;22.20;57.42;102306.19;5042913;28;20483;-63
2023/08/21 09:03:53;;;;;;;5.35;1.73;;;;;;;22.21;57.31;102296.88;5042504;27;20472;-63
2023/08/21 09:06:21;;;;;;;4.85;1.60;;;;;;;22.22;56.98;102303.19;5042580;28;20103;-63
2023/08/21 09:08:56;;;;;;;4.75;1.58;;;;;;;22.24;57.22;102307.31;5042629;28;20067;-63
2023/08/21 09:11:24;;;;;;;5.95;2.13;;;;;;;22.25;56.96;102308.94;5042345;28;20109;-63
2023/08/21 09:13:53;;;;;;;7.15;2.35;;;;;;;22.26;57.08;102290.59;5056046;28;20049;-63
2023/08/21 09:16:22;;;;;;;6.95;1.95;;;;;;;22.22;56.88;102281.28;5062355;28;20113;-63
2023/08/21 09:18:51;;;;;;;5.43;1.80;;;;;;;22.28;57.41;102291.16;5062096;28;20059;-63
2023/08/21 09:21:19;;;;;;;4.05;1.48;;;;;;;22.31;57.23;102290.63;5059079;28;20046;-63
2023/08/21 09:23:48;;;;;;;4.13;1.50;;;;;;;22.33;57.07;102280.25;5042865;28;20054;-63
2023/08/21 09:26:21;;;;;;;4.63;2.15;;;;;;;22.35;57.11;102276.13;5042429;28;20071;-63
2023/08/21 09:28:49;;;;;;;5.50;1.73;;;;;;;22.39;57.20;102281.91;5136145;28;20051;-63
2023/08/21 09:31:22;;;;;;;4.13;1.67;;;;;;;22.41;57.20;102290.69;5120224;28;20071;-63
2023/08/21 09:33:56;;;;;;;3.65;1.45;;;;;;;22.43;57.03;102285.78;5052756;28;20049;-63
2023/08/21 09:36:24;;;;;;;8.85;1.70;;;;;;;22.45;57.35;102280.84;5060995;28;20052;-63
2023/08/21 09:38:52;;;;;;;9.73;1.77;;;;;;;22.48;56.99;102274.00;5045051;28;20062;-63
2023/08/21 09:41:23;;;;;;;6.57;1.27;;;;;;;22.50;56.92;102275.38;5062088;28;20105;-63
2023/08/21 09:43:51;;;;;;;5.63;1.60;;;;;;;22.54;57.29;102275.66;5038712;28;20074;-63
2023/08/21 09:46:26;;;;;;;4.50;1.50;;;;;;;22.57;57.04;102280.59;5041717;28;20075;-63
2023/08/21 09:48:55;;;;;;;4.40;1.58;;;;;;;22.59;57.14;102276.50;5035666;27;20041;-62
2023/08/21 09:51:23;;;;;;;4.70;1.45;;;;;;;22.62;57.04;102273.22;5045888;28;20383;-63
2023/08/21 09:53:51;;;;;;;5.50;1.58;;;;;;;22.66;56.76;102276.25;5052271;27;20084;-63
2023/08/21 09:56:19;;;;;;;6.05;1.48;;;;;;;22.67;56.56;102284.19;5065791;28;20074;-63
2023/08/21 09:58:49;;;;;;;6.03;2.03;;;;;;;22.67;56.46;102280.63;5065223;28;20049;-63
2023/08/21 10:01:21;;;;;;;4.70;1.95;;;;;;;22.61;56.70;102268.84;5065729;28;20049;-63
2023/08/21 10:03:50;;;;;;;5.07;1.35;;;;;;;22.70;56.37;102271.88;5063810;27;20041;-63
2023/08/21 10:06:19;;;;;;;6.07;1.80;;;;;;;22.74;56.53;102264.78;5060828;28;20057;-63
2023/08/21 10:08:54;;;;;;;4.30;1.60;;;;;;;22.77;56.34;102271.63;5045591;28;20056;-63
2023/08/21 10:11:22;;;;;;;3.85;1.52;;;;;;;22.81;56.41;102270.03;5058437;28;20081;-62
2023/08/21 10:13:52;;;;;;;4.88;1.60;;;;;;;22.85;56.54;102266.47;5065321;28;20048;-62
2023/08/21 10:16:21;;;;;;;3.83;1.40;;;;;;;22.88;56.43;102265.94;5065367;28;20132;-62
2023/08/21 10:18:49;;;;;;;5.53;2.15;;;;;;;22.90;56.48;102260.19;5048867;28;20083;-62
2023/08/21 10:21:20;;;;;;;6.53;1.17;;;;;;;22.94;56.06;102256.63;5045365;28;20049;-62
2023/08/21 10:23:48;;;;;;;4.78;1.70;;;;;;;22.95;56.09;102260.19;5047088;28;20049;-62
2023/08/21 10:26:19;;;;;;;4.80;1.90;;;;;;;22.97;56.03;102258.84;5045163;28;20057;-62
2023/08/21 10:28:53;;;;;;;5.68;1.90;;;;;;;22.98;55.98;102259.66;5056745;27;20041;-63
2023/08/21 10:31:32;;;;;;;5.05;1.50;;;;;;;23.00;55.39;102266.53;5045093;28;20554;-63
2023/08/21 10:34:02;;;;;;;3.60;1.38;;;;;;;23.04;55.08;102258.56;5057659;28;20045;-63
2023/08/21 10:37:09;;;;;;;7.35;1.60;;;;;;;23.05;54.40;102255.56;5062912;28;20045;-63
2023/08/21 10:39:39;;;;;;;;;;;;;;;23.09;54.56;102261.31;5052941;28;20049;-63
2023/08/21 10:42:13;;;;;;;4.78;1.75;;;;;;;23.12;54.74;102254.47;5060612;28;19925;-63
2023/08/21 10:44:59;;;;;;;4.55;1.50;;;;;;;23.13;54.36;102251.47;5045078;28;20053;-63
2023/08/21 10:47:33;;;;;;;4.32;1.23;;;;;;;23.17;55.07;102243.50;5044742;28;20049;-63
2023/08/21 10:50:03;;;;;;;3.50;1.50;;;;;;;23.20;55.22;102254.75;5044677;28;20050;-63
2023/08/21 10:52:35;;;;;;;4.43;1.45;;;;;;;23.19;55.28;102241.31;5063625;28;20045;-63
2023/08/21 10:55:04;;;;;;;3.75;1.13;;;;;;;23.29;55.00;102255.88;5059942;27;20052;-63
2023/08/21 10:57:34;;;;;;;4.82;1.48;;;;;;;23.35;54.94;102251.22;5061376;28;20482;-63
2023/08/21 11:00:07;;;;;;;6.53;1.70;;;;;;;23.38;54.00;102264.38;5043835;28;20052;-63
2023/08/21 11:02:36;;;;;;;4.18;1.65;;;;;;;23.41;54.44;102274.00;5044630;28;20049;-63
2023/08/21 11:05:06;;;;;;;4.88;2.13;;;;;;;23.45;54.78;102261.38;5044339;28;20049;-64
2023/08/21 11:07:39;;;;;;;4.75;1.40;;;;;;;23.50;55.09;102255.88;5044442;28;20501;-62
2023/08/21 11:10:08;;;;;;;4.82;1.60;;;;;;;23.54;54.79;102259.75;5044668;28;20102;-62
2023/08/21 11:12:39;;;;;;;5.72;1.42;;;;;;;23.53;53.77;102253.41;5044309;28;20490;-63
2023/08/21 11:15:09;;;;;;;3.45;1.48;;;;;;;23.55;53.38;102261.41;5044544;28;20053;-63
2023/08/21 11:17:37;;;;;;;6.65;1.65;;;;;;;23.56;51.66;102258.38;5052687;28;20049;-63
2023/08/21 11:20:08;;;;;;;6.65;1.65;;;;;;;23.56;52.17;102255.63;5051559;28;20045;-63
2023/08/21 11:22:36;;;;;;;4.78;1.85;;;;;;;23.59;53.23;102254.28;5044825;28;20058;-63
2023/08/21 11:25:04;;;;;;;5.18;1.40;;;;;;;23.62;52.82;102242.75;5044760;27;20058;-62
2023/08/21 11:27:33;;;;;;;3.85;1.50;;;;;;;23.67;53.24;102250.97;5058390;28;20086;-62
2023/08/21 11:30:01;;;;;;;2.95;1.25;;;;;;;23.72;53.39;102248.22;5064310;28;20443;-63
2023/08/21 11:32:31;;;;;;;2.95;1.38;;;;;;;23.79;52.86;102247.94;5062606;27;20064;-63
2023/08/21 11:34:59;;;;;;;5.00;1.42;;;;;;;23.84;52.86;102250.69;5054460;28;20045;-63